This is the latest recevied weather packets stored in our database for station/object DM1MT. If no packets are shown the sender has not sent any weather packets the latest 10 day(s).
| Time | Temp. | Humidity | Pressure | Rain* | Wind** | Luminosity | Snow |
|---|---|---|---|---|---|---|---|
| 1777956553 | 13.33° C | 88% | 1001.1 hPa | 0 mm | - | 18 W/m² | - |
| 1777949829 | 13.89° C | 88% | 1001.8 hPa | 0 mm | - | 0 W/m² | - |
| 1777948586 | 13.89° C | 88% | 1002.1 hPa | 0 mm | - | 0 W/m² | - |
| 1777946266 | 13.89° C | 87% | 1002.4 hPa | 0 mm | - | 0 W/m² | - |
| 1777944486 | 13.89° C | 87% | 1002.5 hPa | 0 mm | - | 0 W/m² | - |
| 1777938633 | 14.44° C | 85% | 1003.3 hPa | 0 mm | - | 0 W/m² | - |
| 1777937226 | 14.44° C | 85% | 1003.6 hPa | 0 mm | - | 0 W/m² | - |
| 1777928150 | 15.56° C | 76% | 1004.7 hPa | 0 mm | - | 0 W/m² | - |
| 1777926486 | 16.11° C | 75% | 1004.6 hPa | 0 mm | - | 0 W/m² | - |
| 1777923966 | 16.11° C | 76% | 1004.2 hPa | 0 mm | - | 0 W/m² | - |
| 1777917986 | 17.78° C | 68% | 1003.7 hPa | 0 mm | - | 3 W/m² | - |
| 1777916786 | 18.33° C | 65% | 1003.5 hPa | 0 mm | - | 9 W/m² | - |
| 1777909565 | 22.78° C | 49% | 1003.9 hPa | 0 mm | - | 99 W/m² | - |
| 1777907932 | 22.22° C | 47% | 1004 hPa | 0 mm | - | 215 W/m² | - |
| 1777902385 | 22.22° C | 48% | 1004.5 hPa | 0 mm | - | 146 W/m² | - |
| 1777900665 | 21.67° C | 49% | 1004.5 hPa | 0 mm | - | 181 W/m² | - |
| 1777899486 | 22.22° C | 49% | 1004.5 hPa | 0 mm | - | 164 W/m² | - |
| 1777897071 | 22.78° C | 46% | 1004.5 hPa | 0 mm | - | 224 W/m² | - |
| 1777890389 | 21.11° C | 48% | 1005.5 hPa | 0 mm | - | 285 W/m² | - |
| 1777887985 | 20.56° C | 49% | 1005.7 hPa | 0 mm | - | 272 W/m² | - |
| 1777886808 | 20° C | 49% | 1005.7 hPa | 0 mm | - | 284 W/m² | - |
| 1777886170 | 20° C | 48% | 1005.9 hPa | 0 mm | - | 254 W/m² | - |
| 1777870612 | 11.11° C | 74% | 1005.2 hPa | 0 mm | - | 35 W/m² | - |
| 1777863364 | 11.67° C | 74% | 1005.2 hPa | 0 mm | - | 0 W/m² | - |
| 1777862784 | 12.22° C | 74% | 1005.3 hPa | 0 mm | - | 0 W/m² | - |
* Rain latest hour (hover to see other rain measurements)
** Current wind speed in m/s (hover to see current wind gust speed)